createdAt,value
2022-07-25T00:00:29.394Z,99.90
2022-07-25T00:05:13.800Z,99.90
2022-07-25T00:09:57.488Z,99.90
2022-07-25T00:14:42.669Z,99.90
2022-07-25T00:19:26.249Z,99.90
2022-07-25T00:24:10.485Z,99.90
2022-07-25T00:28:54.172Z,99.90
2022-07-25T00:33:40.382Z,99.90
2022-07-25T00:38:24.052Z,99.90
2022-07-25T00:43:07.614Z,99.90
2022-07-25T00:47:51.128Z,99.90
2022-07-25T00:52:36.070Z,99.90
2022-07-25T00:57:19.691Z,99.90
2022-07-25T01:02:03.786Z,99.90
2022-07-25T01:06:48.410Z,99.90
2022-07-25T01:11:33.308Z,99.90
2022-07-25T01:16:17.007Z,99.90
2022-07-25T01:21:02.276Z,99.90
2022-07-25T01:25:46.030Z,99.90
2022-07-25T01:30:29.488Z,99.90
2022-07-25T01:35:13.727Z,99.90
2022-07-25T01:39:58.768Z,99.90
2022-07-25T01:44:42.249Z,99.90
2022-07-25T01:49:26.954Z,99.90
2022-07-25T01:54:10.639Z,99.90
2022-07-25T01:58:55.545Z,99.90
2022-07-25T02:03:39.003Z,99.90
2022-07-25T02:08:23.411Z,99.90
2022-07-25T02:13:06.918Z,99.90
2022-07-25T02:18:02.001Z,99.90
2022-07-25T02:22:45.495Z,99.90
2022-07-25T02:27:29.040Z,99.90
2022-07-25T02:32:12.491Z,99.90
2022-07-25T02:36:57.362Z,99.90
2022-07-25T02:41:40.928Z,99.90
2022-07-25T02:46:24.578Z,99.90
2022-07-25T02:51:08.498Z,99.90
2022-07-25T02:55:53.344Z,99.90
2022-07-25T03:00:40.252Z,99.90
2022-07-25T03:05:28.050Z,99.90
2022-07-25T03:10:13.536Z,99.90
2022-07-25T03:14:58.379Z,99.90
2022-07-25T03:19:41.871Z,99.90
2022-07-25T03:24:25.330Z,99.90
2022-07-25T03:29:08.845Z,99.90
2022-07-25T03:33:53.749Z,99.90
2022-07-25T03:38:37.230Z,99.90
2022-07-25T03:43:20.809Z,99.90
2022-07-25T03:48:04.390Z,99.90
2022-07-25T03:52:49.314Z,99.90
2022-07-25T03:57:32.854Z,99.90
2022-07-25T04:02:16.388Z,99.90
2022-07-25T04:06:59.909Z,99.90
2022-07-25T04:11:45.050Z,99.90
2022-07-25T04:16:28.543Z,99.90
2022-07-25T04:21:13.183Z,99.90
2022-07-25T04:25:56.849Z,99.90
2022-07-25T04:30:41.846Z,99.90
2022-07-25T04:35:25.356Z,99.90
2022-07-25T04:40:10.840Z,99.90
2022-07-25T04:44:54.589Z,99.90
2022-07-25T04:49:39.600Z,99.90
2022-07-25T04:54:23.114Z,99.90
2022-07-25T04:59:07.241Z,99.90
2022-07-25T05:03:50.940Z,99.90
2022-07-25T05:08:35.840Z,99.90
2022-07-25T05:13:19.356Z,99.90
2022-07-25T05:18:02.980Z,99.90
2022-07-25T05:22:46.672Z,99.90
2022-07-25T05:27:31.763Z,99.90
2022-07-25T05:32:15.287Z,99.90
2022-07-25T05:36:58.784Z,99.90
2022-07-25T05:41:42.372Z,99.90
2022-07-25T05:46:27.246Z,99.90
2022-07-25T05:51:10.959Z,99.90
2022-07-25T05:55:54.439Z,99.90
2022-07-25T06:00:39.427Z,99.90
2022-07-25T06:05:24.518Z,99.90
2022-07-25T06:10:08.205Z,99.90
2022-07-25T06:14:51.670Z,99.90
2022-07-25T06:19:35.728Z,99.90
2022-07-25T06:24:20.614Z,99.90
2022-07-25T06:29:04.118Z,99.90
2022-07-25T06:33:47.592Z,99.90
2022-07-25T06:38:31.128Z,99.90
2022-07-25T06:43:16.005Z,99.90
2022-07-25T06:47:59.557Z,99.90
2022-07-25T06:52:43.962Z,99.90
2022-07-25T06:57:27.495Z,99.90
2022-07-25T07:02:12.914Z,99.90
2022-07-25T07:06:56.349Z,99.90
2022-07-25T07:11:39.983Z,99.90
2022-07-25T07:16:23.607Z,99.90
2022-07-25T07:21:08.900Z,99.90
2022-07-25T07:25:59.813Z,99.90
2022-07-25T07:31:14.734Z,99.90
2022-07-25T07:35:47.138Z,99.90
2022-07-25T07:40:32.123Z,99.90
2022-07-25T07:45:17.608Z,99.90
2022-07-25T07:50:01.106Z,99.90
2022-07-25T07:55:02.236Z,99.90
2022-07-25T07:59:47.153Z,99.90
2022-07-25T08:04:30.719Z,99.90
2022-07-25T08:09:14.271Z,99.90
2022-07-25T08:13:57.862Z,99.90
2022-07-25T08:18:42.786Z,99.90
2022-07-25T08:23:27.974Z,99.90
2022-07-25T08:28:12.701Z,99.90
2022-07-25T08:32:57.788Z,99.90
2022-07-25T08:37:42.721Z,99.90
2022-07-25T08:42:26.218Z,99.90
2022-07-25T08:47:10.828Z,99.90
2022-07-25T08:51:57.183Z,99.40
2022-07-25T08:56:42.111Z,99.20
2022-07-25T09:01:25.709Z,97.60
2022-07-25T09:06:17.616Z,97.70
2022-07-25T09:11:01.243Z,98.30
2022-07-25T09:15:49.654Z,96.50
2022-07-25T09:20:42.051Z,96.50
2022-07-25T09:25:29.994Z,96.30
2022-07-25T09:30:15.352Z,97.70
2022-07-25T09:35:00.238Z,94.20
2022-07-25T09:39:47.088Z,95.00
2022-07-25T09:44:31.782Z,93.10
2022-07-25T09:49:15.450Z,92.20
2022-07-25T09:54:00.978Z,94.20
2022-07-25T09:58:44.442Z,93.20
2022-07-25T10:03:35.890Z,92.70
2022-07-25T10:08:21.824Z,92.10
2022-07-25T10:13:11.380Z,90.60
2022-07-25T10:18:04.981Z,91.00
2022-07-25T10:22:57.333Z,88.20
2022-07-25T10:27:48.870Z,89.80
2022-07-25T10:32:35.888Z,85.50
2022-07-25T10:37:21.339Z,84.70
2022-07-25T10:42:07.459Z,84.80
2022-07-25T10:46:51.042Z,85.00
2022-07-25T10:51:41.548Z,84.20
2022-07-25T10:56:28.539Z,77.50
2022-07-25T11:01:14.378Z,79.20
2022-07-25T11:05:57.964Z,80.90
2022-07-25T11:10:43.050Z,78.60
2022-07-25T11:15:26.666Z,80.00
2022-07-25T11:20:13.027Z,80.30
2022-07-25T11:24:58.216Z,78.30
2022-07-25T11:29:43.214Z,78.20
2022-07-25T11:34:29.508Z,77.50
2022-07-25T11:39:17.014Z,77.70
2022-07-25T11:44:03.174Z,78.40
2022-07-25T11:48:48.822Z,76.20
2022-07-25T11:53:42.161Z,73.90
2022-07-25T11:58:26.126Z,71.50
2022-07-25T12:03:14.131Z,74.40
2022-07-25T12:08:13.305Z,74.50
2022-07-25T12:12:57.833Z,69.50
2022-07-25T12:17:41.544Z,71.20
2022-07-25T12:22:26.926Z,71.00
2022-07-25T12:27:12.203Z,68.50
2022-07-25T12:31:55.739Z,68.30
2022-07-25T12:36:44.292Z,65.80
2022-07-25T12:41:28.071Z,66.40
2022-07-25T12:46:13.157Z,65.20
2022-07-25T12:50:56.852Z,63.20
2022-07-25T12:55:40.541Z,61.50
2022-07-25T13:00:25.283Z,62.10
2022-07-25T13:05:10.895Z,61.00
2022-07-25T13:09:54.606Z,61.60
2022-07-25T13:14:38.802Z,58.90
2022-07-25T13:19:22.413Z,64.00
2022-07-25T13:24:08.553Z,61.60
2022-07-25T13:28:57.907Z,58.90
2022-07-25T13:33:43.320Z,57.80
2022-07-25T13:38:27.120Z,57.10
2022-07-25T13:43:14.566Z,54.60
2022-07-25T13:48:19.044Z,56.20
2022-07-25T13:53:04.171Z,55.80
2022-07-25T13:57:47.835Z,54.60
2022-07-25T14:02:35.680Z,52.70
2022-07-25T14:07:19.273Z,53.30
2022-07-25T14:12:02.920Z,53.60
2022-07-25T14:16:46.633Z,50.40
2022-07-25T14:21:52.581Z,54.40
2022-07-25T14:26:36.643Z,52.50
2022-07-25T14:31:21.457Z,52.80
2022-07-25T14:36:05.374Z,53.70
2022-07-25T14:40:53.546Z,55.20
2022-07-25T14:45:37.731Z,54.40
2022-07-25T14:50:21.603Z,57.90
2022-07-25T14:55:06.196Z,58.50
2022-07-25T14:59:51.177Z,55.60
2022-07-25T15:04:35.088Z,54.00
2022-07-25T15:09:18.734Z,53.80
2022-07-25T15:14:02.228Z,55.10
2022-07-25T15:19:14.432Z,53.30
2022-07-25T15:23:52.357Z,51.70
2022-07-25T15:28:38.720Z,52.60
2022-07-25T15:33:22.352Z,52.00
2022-07-25T15:38:07.240Z,53.30
2022-07-25T15:42:51.642Z,52.30
2022-07-25T15:47:35.128Z,56.20
2022-07-25T15:52:18.906Z,56.40
2022-07-25T15:57:04.019Z,58.80
2022-07-25T16:01:47.675Z,58.50
2022-07-25T16:06:31.194Z,58.00
2022-07-25T16:11:14.809Z,59.70
2022-07-25T16:15:59.801Z,60.60
2022-07-25T16:20:43.359Z,65.20
2022-07-25T16:25:28.590Z,68.30
2022-07-25T16:30:13.125Z,69.90
2022-07-25T16:34:58.240Z,70.20
2022-07-25T16:39:41.942Z,74.10
2022-07-25T16:44:25.509Z,77.60
2022-07-25T16:49:09.428Z,75.50
2022-07-25T16:53:54.561Z,72.80
2022-07-25T16:58:38.167Z,74.80
2022-07-25T17:03:21.974Z,76.40
2022-07-25T17:08:05.903Z,75.50
2022-07-25T17:12:51.073Z,77.80
2022-07-25T17:17:35.678Z,80.40
2022-07-25T17:22:20.447Z,79.40
2022-07-25T17:27:04.645Z,78.30
2022-07-25T17:31:49.406Z,83.50
2022-07-25T17:36:33.045Z,83.20
2022-07-25T17:41:16.575Z,82.50
2022-07-25T17:46:00.399Z,81.70
2022-07-25T17:50:45.854Z,81.20
2022-07-25T17:55:29.746Z,83.50
2022-07-25T18:00:15.905Z,80.40
2022-07-25T18:04:59.636Z,82.30
2022-07-25T18:09:44.937Z,79.70
2022-07-25T18:14:29.419Z,75.70
2022-07-25T18:19:13.116Z,77.20
2022-07-25T18:23:56.872Z,80.20
2022-07-25T18:28:42.150Z,82.70
2022-07-25T18:33:25.906Z,85.10
2022-07-25T18:38:11.708Z,86.60
2022-07-25T18:42:55.686Z,88.00
2022-07-25T18:47:41.641Z,88.70
2022-07-25T18:52:25.689Z,89.20
2022-07-25T18:57:09.469Z,89.20
2022-07-25T19:01:53.136Z,89.10
2022-07-25T19:06:38.431Z,89.90
2022-07-25T19:11:22.091Z,90.10
2022-07-25T19:16:06.085Z,97.20
2022-07-25T19:20:51.118Z,99.90
2022-07-25T19:25:37.347Z,99.90
2022-07-25T19:30:21.749Z,99.90
2022-07-25T19:35:06.777Z,99.90
2022-07-25T19:39:51.671Z,99.90
2022-07-25T19:44:36.976Z,99.90
2022-07-25T19:49:20.994Z,99.90
2022-07-25T19:54:05.752Z,99.90
2022-07-25T19:58:49.611Z,99.90
2022-07-25T20:03:34.574Z,99.90
2022-07-25T20:08:19.294Z,99.90
2022-07-25T20:13:02.855Z,99.90
2022-07-25T20:17:46.486Z,99.90
2022-07-25T20:22:31.743Z,99.90
2022-07-25T20:27:15.302Z,99.90
2022-07-25T20:31:59.233Z,99.90
2022-07-25T20:36:42.957Z,99.90
2022-07-25T20:41:28.087Z,99.90
2022-07-25T20:46:12.641Z,99.90
2022-07-25T20:50:56.361Z,99.90
2022-07-25T20:55:40.246Z,99.90
2022-07-25T21:00:27.766Z,99.90
2022-07-25T21:05:11.821Z,99.90
2022-07-25T21:09:59.947Z,99.90
2022-07-25T21:15:03.234Z,99.90
2022-07-25T21:20:14.761Z,99.90
2022-07-25T21:24:58.874Z,99.90
2022-07-25T21:29:43.035Z,99.90
2022-07-25T21:34:27.172Z,99.90
2022-07-25T21:39:13.481Z,99.90
2022-07-25T21:43:58.474Z,99.90
2022-07-25T21:48:59.556Z,99.90
2022-07-25T21:53:43.437Z,99.90
2022-07-25T21:58:28.771Z,99.90
2022-07-25T22:03:12.483Z,99.90
2022-07-25T22:07:56.052Z,99.90
2022-07-25T22:12:39.865Z,99.90
2022-07-25T22:17:24.832Z,99.90
2022-07-25T22:22:08.534Z,99.90
2022-07-25T22:26:52.034Z,99.90
2022-07-25T22:31:35.625Z,99.90
2022-07-25T22:36:20.627Z,99.90
2022-07-25T22:41:04.175Z,99.90
2022-07-25T22:45:48.181Z,99.90
2022-07-25T22:50:31.893Z,99.90
2022-07-25T22:55:17.033Z,99.90
2022-07-25T23:00:00.688Z,99.90
2022-07-25T23:04:44.214Z,99.90
2022-07-25T23:09:36.057Z,99.90
2022-07-25T23:14:21.473Z,99.90
2022-07-25T23:19:05.218Z,99.90
2022-07-25T23:23:48.925Z,99.90
2022-07-25T23:28:32.511Z,99.90
2022-07-25T23:33:17.411Z,99.90
2022-07-25T23:38:08.697Z,99.90
2022-07-25T23:42:52.893Z,99.90
2022-07-25T23:47:36.849Z,99.90
2022-07-25T23:52:24.764Z,99.90
2022-07-25T23:57:08.822Z,99.90
